sensor_id;sensor_type;location;lat;lon;timestamp;P1;durP1;ratioP1;P2;durP2;ratioP2
12910;SDS011;6523;49.758;6.120;2022-08-04T00:02:11;2.57;;;2.13;;
12910;SDS011;6523;49.758;6.120;2022-08-04T00:04:48;2.50;;;2.10;;
12910;SDS011;6523;49.758;6.120;2022-08-04T00:07:25;2.53;;;2.33;;
12910;SDS011;6523;49.758;6.120;2022-08-04T00:10:04;4.70;;;2.90;;
12910;SDS011;6523;49.758;6.120;2022-08-04T00:12:31;3.17;;;2.70;;
12910;SDS011;6523;49.758;6.120;2022-08-04T00:15:00;3.00;;;2.80;;
12910;SDS011;6523;49.758;6.120;2022-08-04T00:17:33;4.13;;;2.73;;
12910;SDS011;6523;49.758;6.120;2022-08-04T00:20:07;4.10;;;2.50;;
12910;SDS011;6523;49.758;6.120;2022-08-04T00:22:34;3.90;;;2.70;;
12910;SDS011;6523;49.758;6.120;2022-08-04T00:25:04;2.70;;;2.50;;
12910;SDS011;6523;49.758;6.120;2022-08-04T00:27:30;2.83;;;2.60;;
12910;SDS011;6523;49.758;6.120;2022-08-04T00:29:56;2.60;;;2.40;;
12910;SDS011;6523;49.758;6.120;2022-08-04T00:32:22;3.20;;;2.57;;
12910;SDS011;6523;49.758;6.120;2022-08-04T00:34:50;3.67;;;2.80;;
12910;SDS011;6523;49.758;6.120;2022-08-04T00:37:19;4.23;;;2.60;;
12910;SDS011;6523;49.758;6.120;2022-08-04T00:39:45;2.93;;;2.53;;
12910;SDS011;6523;49.758;6.120;2022-08-04T00:42:26;3.00;;;2.73;;
12910;SDS011;6523;49.758;6.120;2022-08-04T00:58:41;2.87;;;2.67;;
12910;SDS011;6523;49.758;6.120;2022-08-04T01:04:13;3.60;;;2.60;;
12910;SDS011;6523;49.758;6.120;2022-08-04T01:07:14;3.73;;;2.67;;
12910;SDS011;6523;49.758;6.120;2022-08-04T01:18:03;2.90;;;2.60;;
12910;SDS011;6523;49.758;6.120;2022-08-04T01:20:34;3.90;;;2.77;;
12910;SDS011;6523;49.758;6.120;2022-08-04T01:29:04;3.97;;;2.60;;
12910;SDS011;6523;49.758;6.120;2022-08-04T01:34:22;3.87;;;3.00;;
12910;SDS011;6523;49.758;6.120;2022-08-04T01:36:57;3.37;;;2.70;;
12910;SDS011;6523;49.758;6.120;2022-08-04T01:39:50;6.43;;;3.17;;
12910;SDS011;6523;49.758;6.120;2022-08-04T01:42:24;4.20;;;2.90;;
12910;SDS011;6523;49.758;6.120;2022-08-04T01:44:52;4.07;;;2.40;;
12910;SDS011;6523;49.758;6.120;2022-08-04T01:47:20;4.80;;;2.80;;
12910;SDS011;6523;49.758;6.120;2022-08-04T01:49:46;3.13;;;2.83;;
12910;SDS011;6523;49.758;6.120;2022-08-04T01:52:15;3.07;;;2.77;;
12910;SDS011;6523;49.758;6.120;2022-08-04T01:54:42;4.13;;;3.37;;
12910;SDS011;6523;49.758;6.120;2022-08-04T01:57:09;3.00;;;2.80;;
12910;SDS011;6523;49.758;6.120;2022-08-04T01:59:35;2.73;;;2.50;;
12910;SDS011;6523;49.758;6.120;2022-08-04T02:02:03;4.07;;;3.23;;
12910;SDS011;6523;49.758;6.120;2022-08-04T02:04:30;4.30;;;3.20;;
12910;SDS011;6523;49.758;6.120;2022-08-04T02:07:06;6.80;;;2.73;;
12910;SDS011;6523;49.758;6.120;2022-08-04T02:15:30;3.90;;;2.67;;
12910;SDS011;6523;49.758;6.120;2022-08-04T02:18:17;3.77;;;2.63;;
12910;SDS011;6523;49.758;6.120;2022-08-04T02:21:02;3.00;;;2.37;;
12910;SDS011;6523;49.758;6.120;2022-08-04T02:23:38;3.10;;;2.80;;
12910;SDS011;6523;49.758;6.120;2022-08-04T02:26:38;2.60;;;2.40;;
12910;SDS011;6523;49.758;6.120;2022-08-04T02:31:55;2.93;;;2.63;;
12910;SDS011;6523;49.758;6.120;2022-08-04T02:34:24;3.13;;;2.83;;
12910;SDS011;6523;49.758;6.120;2022-08-04T02:36:54;5.23;;;2.90;;
12910;SDS011;6523;49.758;6.120;2022-08-04T02:39:20;3.10;;;2.37;;
12910;SDS011;6523;49.758;6.120;2022-08-04T02:41:47;3.00;;;2.50;;
12910;SDS011;6523;49.758;6.120;2022-08-04T02:44:13;7.13;;;2.93;;
12910;SDS011;6523;49.758;6.120;2022-08-04T02:46:45;3.40;;;3.10;;
12910;SDS011;6523;49.758;6.120;2022-08-04T02:49:12;4.50;;;3.23;;
12910;SDS011;6523;49.758;6.120;2022-08-04T02:51:39;3.07;;;2.83;;
12910;SDS011;6523;49.758;6.120;2022-08-04T02:54:06;2.70;;;2.50;;
12910;SDS011;6523;49.758;6.120;2022-08-04T02:56:33;3.30;;;3.00;;
12910;SDS011;6523;49.758;6.120;2022-08-04T02:59:05;4.07;;;3.00;;
12910;SDS011;6523;49.758;6.120;2022-08-04T03:01:33;2.90;;;2.67;;
12910;SDS011;6523;49.758;6.120;2022-08-04T03:06:52;3.17;;;2.87;;
12910;SDS011;6523;49.758;6.120;2022-08-04T03:15:01;3.40;;;3.10;;
12910;SDS011;6523;49.758;6.120;2022-08-04T03:18:00;4.10;;;3.20;;
12910;SDS011;6523;49.758;6.120;2022-08-04T03:21:12;3.70;;;2.70;;
12910;SDS011;6523;49.758;6.120;2022-08-04T03:26:51;4.27;;;2.73;;
12910;SDS011;6523;49.758;6.120;2022-08-04T03:46:12;2.87;;;2.67;;
12910;SDS011;6523;49.758;6.120;2022-08-04T04:00:17;3.70;;;3.30;;
12910;SDS011;6523;49.758;6.120;2022-08-04T04:08:41;3.30;;;2.90;;
12910;SDS011;6523;49.758;6.120;2022-08-04T04:11:33;3.37;;;3.07;;
12910;SDS011;6523;49.758;6.120;2022-08-04T04:19:31;4.00;;;3.17;;
12910;SDS011;6523;49.758;6.120;2022-08-04T04:25:14;4.23;;;3.23;;
12910;SDS011;6523;49.758;6.120;2022-08-04T04:44:06;5.07;;;4.03;;
12910;SDS011;6523;49.758;6.120;2022-08-04T04:49:48;3.57;;;3.27;;
12910;SDS011;6523;49.758;6.120;2022-08-04T04:52:51;3.70;;;3.30;;
12910;SDS011;6523;49.758;6.120;2022-08-04T04:55:23;4.70;;;3.13;;
12910;SDS011;6523;49.758;6.120;2022-08-04T04:57:55;5.73;;;3.13;;
12910;SDS011;6523;49.758;6.120;2022-08-04T05:00:23;5.80;;;3.47;;
12910;SDS011;6523;49.758;6.120;2022-08-04T05:05:39;3.77;;;3.47;;
12910;SDS011;6523;49.758;6.120;2022-08-04T05:13:49;4.83;;;3.20;;
12910;SDS011;6523;49.758;6.120;2022-08-04T05:16:23;4.20;;;3.80;;
12910;SDS011;6523;49.758;6.120;2022-08-04T05:21:57;5.67;;;3.53;;
12910;SDS011;6523;49.758;6.120;2022-08-04T05:24:26;6.40;;;3.70;;
12910;SDS011;6523;49.758;6.120;2022-08-04T05:26:56;6.00;;;3.67;;
12910;SDS011;6523;49.758;6.120;2022-08-04T05:29:27;5.67;;;3.80;;
12910;SDS011;6523;49.758;6.120;2022-08-04T05:32:00;4.00;;;3.37;;
12910;SDS011;6523;49.758;6.120;2022-08-04T05:34:34;4.90;;;3.60;;
12910;SDS011;6523;49.758;6.120;2022-08-04T05:37:09;4.00;;;3.70;;
12910;SDS011;6523;49.758;6.120;2022-08-04T05:39:53;5.50;;;3.90;;
12910;SDS011;6523;49.758;6.120;2022-08-04T05:42:22;3.97;;;3.57;;
12910;SDS011;6523;49.758;6.120;2022-08-04T05:44:49;4.30;;;3.93;;
12910;SDS011;6523;49.758;6.120;2022-08-04T05:47:15;5.30;;;3.70;;
12910;SDS011;6523;49.758;6.120;2022-08-04T05:49:41;4.57;;;4.07;;
12910;SDS011;6523;49.758;6.120;2022-08-04T05:52:09;6.10;;;4.20;;
12910;SDS011;6523;49.758;6.120;2022-08-04T05:54:35;5.80;;;4.60;;
12910;SDS011;6523;49.758;6.120;2022-08-04T05:57:03;4.77;;;4.30;;
12910;SDS011;6523;49.758;6.120;2022-08-04T05:59:31;4.17;;;3.77;;
12910;SDS011;6523;49.758;6.120;2022-08-04T06:01:58;4.40;;;4.00;;
12910;SDS011;6523;49.758;6.120;2022-08-04T06:04:35;5.57;;;4.40;;
12910;SDS011;6523;49.758;6.120;2022-08-04T06:07:03;4.63;;;4.30;;
12910;SDS011;6523;49.758;6.120;2022-08-04T06:09:30;4.73;;;4.23;;
12910;SDS011;6523;49.758;6.120;2022-08-04T06:11:59;6.00;;;4.07;;
12910;SDS011;6523;49.758;6.120;2022-08-04T06:14:26;7.97;;;4.47;;
12910;SDS011;6523;49.758;6.120;2022-08-04T06:16:59;4.57;;;3.80;;
12910;SDS011;6523;49.758;6.120;2022-08-04T06:19:29;4.70;;;4.30;;
12910;SDS011;6523;49.758;6.120;2022-08-04T06:21:58;7.63;;;4.47;;
12910;SDS011;6523;49.758;6.120;2022-08-04T06:24:26;5.27;;;4.20;;
12910;SDS011;6523;49.758;6.120;2022-08-04T06:26:53;4.20;;;3.80;;
12910;SDS011;6523;49.758;6.120;2022-08-04T06:29:20;4.83;;;4.30;;
12910;SDS011;6523;49.758;6.120;2022-08-04T06:31:50;5.27;;;3.80;;
12910;SDS011;6523;49.758;6.120;2022-08-04T06:34:26;4.47;;;4.13;;
12910;SDS011;6523;49.758;6.120;2022-08-04T06:36:52;5.67;;;4.03;;
12910;SDS011;6523;49.758;6.120;2022-08-04T06:39:20;5.57;;;4.47;;
12910;SDS011;6523;49.758;6.120;2022-08-04T06:41:48;4.80;;;4.30;;
12910;SDS011;6523;49.758;6.120;2022-08-04T06:44:15;5.03;;;3.80;;
12910;SDS011;6523;49.758;6.120;2022-08-04T06:46:42;4.33;;;3.80;;
12910;SDS011;6523;49.758;6.120;2022-08-04T06:49:08;4.10;;;3.70;;
12910;SDS011;6523;49.758;6.120;2022-08-04T06:51:35;6.73;;;3.47;;
12910;SDS011;6523;49.758;6.120;2022-08-04T06:54:02;3.83;;;3.53;;
12910;SDS011;6523;49.758;6.120;2022-08-04T06:56:29;3.93;;;3.60;;
12910;SDS011;6523;49.758;6.120;2022-08-04T06:58:55;4.80;;;3.47;;
12910;SDS011;6523;49.758;6.120;2022-08-04T07:01:23;7.10;;;3.53;;
12910;SDS011;6523;49.758;6.120;2022-08-04T07:03:50;3.67;;;3.23;;
12910;SDS011;6523;49.758;6.120;2022-08-04T07:06:17;3.40;;;3.10;;
12910;SDS011;6523;49.758;6.120;2022-08-04T07:08:45;4.13;;;3.70;;
12910;SDS011;6523;49.758;6.120;2022-08-04T07:11:10;3.60;;;3.30;;
12910;SDS011;6523;49.758;6.120;2022-08-04T07:13:37;5.70;;;3.13;;
12910;SDS011;6523;49.758;6.120;2022-08-04T07:16:04;4.60;;;3.53;;
12910;SDS011;6523;49.758;6.120;2022-08-04T07:18:31;4.03;;;3.10;;
12910;SDS011;6523;49.758;6.120;2022-08-04T07:20:57;3.40;;;3.20;;
12910;SDS011;6523;49.758;6.120;2022-08-04T07:23:23;3.63;;;3.20;;
12910;SDS011;6523;49.758;6.120;2022-08-04T07:25:51;4.00;;;3.50;;
12910;SDS011;6523;49.758;6.120;2022-08-04T07:28:18;5.77;;;3.60;;
12910;SDS011;6523;49.758;6.120;2022-08-04T07:30:46;3.90;;;2.83;;
12910;SDS011;6523;49.758;6.120;2022-08-04T07:33:13;3.40;;;3.10;;
12910;SDS011;6523;49.758;6.120;2022-08-04T07:35:40;3.80;;;3.10;;
12910;SDS011;6523;49.758;6.120;2022-08-04T07:38:06;3.70;;;3.00;;
12910;SDS011;6523;49.758;6.120;2022-08-04T07:40:31;3.37;;;3.07;;
12910;SDS011;6523;49.758;6.120;2022-08-04T07:42:57;4.27;;;3.23;;
12910;SDS011;6523;49.758;6.120;2022-08-04T07:45:23;3.43;;;3.20;;
12910;SDS011;6523;49.758;6.120;2022-08-04T07:47:49;5.13;;;3.60;;
12910;SDS011;6523;49.758;6.120;2022-08-04T07:50:15;3.70;;;3.40;;
12910;SDS011;6523;49.758;6.120;2022-08-04T07:52:41;4.70;;;3.70;;
12910;SDS011;6523;49.758;6.120;2022-08-04T07:55:08;4.20;;;3.30;;
12910;SDS011;6523;49.758;6.120;2022-08-04T07:57:34;3.50;;;3.20;;
12910;SDS011;6523;49.758;6.120;2022-08-04T08:00:00;4.23;;;3.40;;
12910;SDS011;6523;49.758;6.120;2022-08-04T08:02:28;3.83;;;3.40;;
12910;SDS011;6523;49.758;6.120;2022-08-04T08:04:54;3.90;;;3.23;;
12910;SDS011;6523;49.758;6.120;2022-08-04T08:07:20;3.60;;;3.17;;
12910;SDS011;6523;49.758;6.120;2022-08-04T08:09:45;5.57;;;3.43;;
12910;SDS011;6523;49.758;6.120;2022-08-04T08:12:12;5.03;;;3.30;;
12910;SDS011;6523;49.758;6.120;2022-08-04T08:14:39;3.80;;;3.30;;
12910;SDS011;6523;49.758;6.120;2022-08-04T08:17:05;4.87;;;3.60;;
12910;SDS011;6523;49.758;6.120;2022-08-04T08:19:31;3.50;;;2.90;;
12910;SDS011;6523;49.758;6.120;2022-08-04T08:21:58;3.23;;;2.93;;
12910;SDS011;6523;49.758;6.120;2022-08-04T08:24:25;4.30;;;2.73;;
12910;SDS011;6523;49.758;6.120;2022-08-04T08:26:54;2.90;;;2.70;;
12910;SDS011;6523;49.758;6.120;2022-08-04T08:29:20;4.00;;;2.67;;
12910;SDS011;6523;49.758;6.120;2022-08-04T08:31:47;4.40;;;2.47;;
12910;SDS011;6523;49.758;6.120;2022-08-04T08:34:13;2.77;;;2.57;;
12910;SDS011;6523;49.758;6.120;2022-08-04T08:36:50;4.50;;;2.53;;
12910;SDS011;6523;49.758;6.120;2022-08-04T08:42:13;3.33;;;2.87;;
12910;SDS011;6523;49.758;6.120;2022-08-04T08:47:48;3.03;;;2.83;;
12910;SDS011;6523;49.758;6.120;2022-08-04T08:59:00;3.10;;;2.80;;
12910;SDS011;6523;49.758;6.120;2022-08-04T09:01:53;5.87;;;3.13;;
12910;SDS011;6523;49.758;6.120;2022-08-04T09:12:53;3.30;;;2.70;;
12910;SDS011;6523;49.758;6.120;2022-08-04T09:15:32;3.63;;;2.87;;
12910;SDS011;6523;49.758;6.120;2022-08-04T09:21:22;3.23;;;2.93;;
12910;SDS011;6523;49.758;6.120;2022-08-04T09:24:15;3.03;;;2.50;;
12910;SDS011;6523;49.758;6.120;2022-08-04T09:26:49;2.70;;;2.50;;
12910;SDS011;6523;49.758;6.120;2022-08-04T09:32:33;2.90;;;2.70;;
12910;SDS011;6523;49.758;6.120;2022-08-04T09:35:15;4.20;;;2.70;;
12910;SDS011;6523;49.758;6.120;2022-08-04T09:40:40;6.27;;;2.90;;
12910;SDS011;6523;49.758;6.120;2022-08-04T09:46:16;3.23;;;2.10;;
12910;SDS011;6523;49.758;6.120;2022-08-04T09:48:54;3.57;;;2.33;;
12910;SDS011;6523;49.758;6.120;2022-08-04T09:54:18;2.53;;;2.30;;
12910;SDS011;6523;49.758;6.120;2022-08-04T10:00:00;2.67;;;2.43;;
12910;SDS011;6523;49.758;6.120;2022-08-04T10:02:31;2.07;;;1.97;;
12910;SDS011;6523;49.758;6.120;2022-08-04T10:05:01;2.50;;;1.90;;
12910;SDS011;6523;49.758;6.120;2022-08-04T10:13:41;1.63;;;1.40;;
12910;SDS011;6523;49.758;6.120;2022-08-04T10:21:15;2.40;;;1.50;;
12910;SDS011;6523;49.758;6.120;2022-08-04T10:29:29;2.67;;;1.47;;
12910;SDS011;6523;49.758;6.120;2022-08-04T10:37:56;1.67;;;1.58;;
12910;SDS011;6523;49.758;6.120;2022-08-04T10:41:05;1.70;;;1.60;;
12910;SDS011;6523;49.758;6.120;2022-08-04T10:43:42;2.92;;;1.58;;
12910;SDS011;6523;49.758;6.120;2022-08-04T10:46:34;1.50;;;1.40;;
12910;SDS011;6523;49.758;6.120;2022-08-04T10:49:13;2.03;;;1.50;;
12910;SDS011;6523;49.758;6.120;2022-08-04T10:54:26;3.57;;;1.33;;
12910;SDS011;6523;49.758;6.120;2022-08-04T10:57:02;2.20;;;1.27;;
12910;SDS011;6523;49.758;6.120;2022-08-04T10:59:41;2.72;;;1.30;;
12910;SDS011;6523;49.758;6.120;2022-08-04T11:02:11;1.50;;;1.40;;
12910;SDS011;6523;49.758;6.120;2022-08-04T11:04:49;1.97;;;1.43;;
12910;SDS011;6523;49.758;6.120;2022-08-04T11:07:23;1.53;;;1.20;;
12910;SDS011;6523;49.758;6.120;2022-08-04T11:09:54;1.80;;;1.70;;
12910;SDS011;6523;49.758;6.120;2022-08-04T11:12:22;2.47;;;1.20;;
12910;SDS011;6523;49.758;6.120;2022-08-04T11:15:06;1.40;;;1.30;;
12910;SDS011;6523;49.758;6.120;2022-08-04T11:17:39;1.23;;;1.10;;
12910;SDS011;6523;49.758;6.120;2022-08-04T11:20:11;1.13;;;1.13;;
12910;SDS011;6523;49.758;6.120;2022-08-04T11:22:47;1.77;;;1.17;;
12910;SDS011;6523;49.758;6.120;2022-08-04T11:25:19;1.93;;;1.20;;
12910;SDS011;6523;49.758;6.120;2022-08-04T11:30:29;1.85;;;1.10;;
12910;SDS011;6523;49.758;6.120;2022-08-04T11:33:16;3.05;;;1.30;;
12910;SDS011;6523;49.758;6.120;2022-08-04T11:41:39;1.65;;;1.30;;
12910;SDS011;6523;49.758;6.120;2022-08-04T11:44:15;2.70;;;1.17;;
12910;SDS011;6523;49.758;6.120;2022-08-04T11:47:20;1.65;;;1.42;;
12910;SDS011;6523;49.758;6.120;2022-08-04T11:52:47;1.40;;;1.30;;
12910;SDS011;6523;49.758;6.120;2022-08-04T11:55:17;2.60;;;1.20;;
12910;SDS011;6523;49.758;6.120;2022-08-04T11:57:45;2.70;;;1.10;;
12910;SDS011;6523;49.758;6.120;2022-08-04T12:00:12;2.10;;;1.20;;
12910;SDS011;6523;49.758;6.120;2022-08-04T12:05:30;1.38;;;1.20;;
12910;SDS011;6523;49.758;6.120;2022-08-04T12:08:21;2.50;;;1.17;;
12910;SDS011;6523;49.758;6.120;2022-08-04T12:10:56;2.15;;;1.30;;
12910;SDS011;6523;49.758;6.120;2022-08-04T12:21:28;2.40;;;1.52;;
12910;SDS011;6523;49.758;6.120;2022-08-04T12:24:07;1.77;;;1.20;;
12910;SDS011;6523;49.758;6.120;2022-08-04T12:26:44;2.35;;;1.40;;
12910;SDS011;6523;49.758;6.120;2022-08-04T12:29:15;2.92;;;1.50;;
12910;SDS011;6523;49.758;6.120;2022-08-04T12:31:47;2.90;;;1.40;;
12910;SDS011;6523;49.758;6.120;2022-08-04T12:34:33;2.05;;;1.50;;
12910;SDS011;6523;49.758;6.120;2022-08-04T12:37:25;2.55;;;1.40;;
12910;SDS011;6523;49.758;6.120;2022-08-04T12:39:54;2.72;;;1.33;;
12910;SDS011;6523;49.758;6.120;2022-08-04T12:42:33;1.30;;;1.15;;
12910;SDS011;6523;49.758;6.120;2022-08-04T12:45:07;3.22;;;1.42;;
12910;SDS011;6523;49.758;6.120;2022-08-04T12:47:34;3.13;;;1.83;;
12910;SDS011;6523;49.758;6.120;2022-08-04T12:50:02;1.80;;;1.30;;
12910;SDS011;6523;49.758;6.120;2022-08-04T12:52:29;1.70;;;1.25;;
12910;SDS011;6523;49.758;6.120;2022-08-04T12:55:00;1.48;;;1.35;;
12910;SDS011;6523;49.758;6.120;2022-08-04T12:57:28;1.00;;;1.00;;
12910;SDS011;6523;49.758;6.120;2022-08-04T12:59:58;1.60;;;1.27;;
12910;SDS011;6523;49.758;6.120;2022-08-04T13:04:49;1.45;;;1.35;;
12910;SDS011;6523;49.758;6.120;2022-08-04T13:07:18;2.20;;;1.42;;
12910;SDS011;6523;49.758;6.120;2022-08-04T13:09:45;1.77;;;1.40;;
12910;SDS011;6523;49.758;6.120;2022-08-04T13:12:13;2.75;;;1.67;;
12910;SDS011;6523;49.758;6.120;2022-08-04T13:14:40;3.38;;;1.50;;
12910;SDS011;6523;49.758;6.120;2022-08-04T13:17:10;1.40;;;1.20;;
12910;SDS011;6523;49.758;6.120;2022-08-04T13:19:36;2.33;;;1.40;;
12910;SDS011;6523;49.758;6.120;2022-08-04T13:22:03;1.70;;;1.60;;
12910;SDS011;6523;49.758;6.120;2022-08-04T13:24:30;1.42;;;1.20;;
12910;SDS011;6523;49.758;6.120;2022-08-04T13:27:01;2.30;;;1.15;;
12910;SDS011;6523;49.758;6.120;2022-08-04T13:29:34;1.70;;;1.50;;
12910;SDS011;6523;49.758;6.120;2022-08-04T13:32:06;2.63;;;1.70;;
12910;SDS011;6523;49.758;6.120;2022-08-04T13:34:33;1.75;;;1.30;;
12910;SDS011;6523;49.758;6.120;2022-08-04T13:37:03;1.58;;;1.48;;
12910;SDS011;6523;49.758;6.120;2022-08-04T13:39:30;1.67;;;1.10;;
12910;SDS011;6523;49.758;6.120;2022-08-04T13:41:59;1.95;;;1.27;;
12910;SDS011;6523;49.758;6.120;2022-08-04T13:44:34;2.97;;;1.23;;
12910;SDS011;6523;49.758;6.120;2022-08-04T13:47:05;2.42;;;1.58;;
12910;SDS011;6523;49.758;6.120;2022-08-04T13:49:33;3.63;;;1.50;;
12910;SDS011;6523;49.758;6.120;2022-08-04T13:52:00;2.60;;;1.38;;
12910;SDS011;6523;49.758;6.120;2022-08-04T13:54:38;1.40;;;1.30;;
12910;SDS011;6523;49.758;6.120;2022-08-04T13:57:05;1.60;;;1.50;;
12910;SDS011;6523;49.758;6.120;2022-08-04T13:59:44;3.35;;;1.60;;
12910;SDS011;6523;49.758;6.120;2022-08-04T14:02:20;2.05;;;1.40;;
12910;SDS011;6523;49.758;6.120;2022-08-04T14:04:53;2.22;;;1.45;;
12910;SDS011;6523;49.758;6.120;2022-08-04T14:07:21;1.83;;;1.67;;
12910;SDS011;6523;49.758;6.120;2022-08-04T14:09:50;1.73;;;1.63;;
12910;SDS011;6523;49.758;6.120;2022-08-04T14:12:17;2.17;;;1.95;;
12910;SDS011;6523;49.758;6.120;2022-08-04T14:14:44;2.13;;;1.40;;
12910;SDS011;6523;49.758;6.120;2022-08-04T14:17:13;2.33;;;1.70;;
12910;SDS011;6523;49.758;6.120;2022-08-04T14:24:57;1.48;;;1.38;;
12910;SDS011;6523;49.758;6.120;2022-08-04T14:27:23;2.58;;;1.63;;
12910;SDS011;6523;49.758;6.120;2022-08-04T14:29:49;1.52;;;1.40;;
12910;SDS011;6523;49.758;6.120;2022-08-04T14:32:15;1.88;;;1.30;;
12910;SDS011;6523;49.758;6.120;2022-08-04T14:34:41;2.42;;;1.50;;
12910;SDS011;6523;49.758;6.120;2022-08-04T14:37:09;1.40;;;1.30;;
12910;SDS011;6523;49.758;6.120;2022-08-04T14:42:07;2.28;;;1.48;;
12910;SDS011;6523;49.758;6.120;2022-08-04T14:44:52;2.03;;;1.30;;
12910;SDS011;6523;49.758;6.120;2022-08-04T14:47:41;1.60;;;1.48;;
12910;SDS011;6523;49.758;6.120;2022-08-04T14:50:09;1.10;;;1.10;;
12910;SDS011;6523;49.758;6.120;2022-08-04T14:52:35;1.63;;;1.35;;
12910;SDS011;6523;49.758;6.120;2022-08-04T14:55:21;2.17;;;1.45;;
12910;SDS011;6523;49.758;6.120;2022-08-04T14:57:48;3.45;;;1.10;;
12910;SDS011;6523;49.758;6.120;2022-08-04T15:00:23;4.70;;;1.40;;
12910;SDS011;6523;49.758;6.120;2022-08-04T15:02:55;1.85;;;1.40;;
12910;SDS011;6523;49.758;6.120;2022-08-04T15:05:25;1.50;;;1.40;;
12910;SDS011;6523;49.758;6.120;2022-08-04T15:07:53;1.67;;;1.58;;
12910;SDS011;6523;49.758;6.120;2022-08-04T15:10:20;1.50;;;1.40;;
12910;SDS011;6523;49.758;6.120;2022-08-04T15:12:46;2.15;;;1.42;;
12910;SDS011;6523;49.758;6.120;2022-08-04T15:15:12;2.00;;;1.80;;
12910;SDS011;6523;49.758;6.120;2022-08-04T15:17:39;3.70;;;1.77;;
12910;SDS011;6523;49.758;6.120;2022-08-04T15:20:05;2.40;;;1.50;;
12910;SDS011;6523;49.758;6.120;2022-08-04T15:22:31;1.50;;;1.40;;
12910;SDS011;6523;49.758;6.120;2022-08-04T15:24:57;1.63;;;1.50;;
12910;SDS011;6523;49.758;6.120;2022-08-04T15:27:24;3.08;;;1.40;;
12910;SDS011;6523;49.758;6.120;2022-08-04T15:29:54;1.65;;;1.55;;
12910;SDS011;6523;49.758;6.120;2022-08-04T15:32:23;1.40;;;1.30;;
12910;SDS011;6523;49.758;6.120;2022-08-04T15:34:50;2.88;;;1.70;;
12910;SDS011;6523;49.758;6.120;2022-08-04T15:40:05;2.83;;;1.50;;
12910;SDS011;6523;49.758;6.120;2022-08-04T15:58:49;3.90;;;2.20;;
12910;SDS011;6523;49.758;6.120;2022-08-04T16:01:16;2.95;;;1.50;;
12910;SDS011;6523;49.758;6.120;2022-08-04T16:11:59;1.73;;;1.63;;
12910;SDS011;6523;49.758;6.120;2022-08-04T16:25:21;4.10;;;2.37;;
12910;SDS011;6523;49.758;6.120;2022-08-04T16:31:00;1.97;;;1.80;;
12910;SDS011;6523;49.758;6.120;2022-08-04T16:33:29;2.43;;;1.97;;
12910;SDS011;6523;49.758;6.120;2022-08-04T16:36:11;1.73;;;1.63;;
12910;SDS011;6523;49.758;6.120;2022-08-04T16:38:59;2.93;;;1.60;;
12910;SDS011;6523;49.758;6.120;2022-08-04T16:41:47;5.80;;;1.93;;
12910;SDS011;6523;49.758;6.120;2022-08-04T16:44:46;2.03;;;1.87;;
12910;SDS011;6523;49.758;6.120;2022-08-04T16:47:06;6.10;;;2.00;;
12910;SDS011;6523;49.758;6.120;2022-08-04T16:49:32;2.10;;;1.90;;
12910;SDS011;6523;49.758;6.120;2022-08-04T16:52:05;2.00;;;1.77;;
12910;SDS011;6523;49.758;6.120;2022-08-04T16:54:31;2.30;;;1.70;;
12910;SDS011;6523;49.758;6.120;2022-08-04T16:56:59;5.17;;;2.07;;
12910;SDS011;6523;49.758;6.120;2022-08-04T16:59:25;2.93;;;1.77;;
12910;SDS011;6523;49.758;6.120;2022-08-04T17:01:52;3.20;;;1.97;;
12910;SDS011;6523;49.758;6.120;2022-08-04T17:04:28;2.80;;;1.60;;
12910;SDS011;6523;49.758;6.120;2022-08-04T17:07:03;3.53;;;1.80;;
12910;SDS011;6523;49.758;6.120;2022-08-04T17:09:29;1.53;;;1.37;;
12910;SDS011;6523;49.758;6.120;2022-08-04T17:11:56;3.43;;;1.90;;
12910;SDS011;6523;49.758;6.120;2022-08-04T17:14:23;1.93;;;1.70;;
12910;SDS011;6523;49.758;6.120;2022-08-04T17:16:55;2.73;;;2.00;;
12910;SDS011;6523;49.758;6.120;2022-08-04T17:19:22;3.33;;;1.80;;
12910;SDS011;6523;49.758;6.120;2022-08-04T17:21:48;3.43;;;1.90;;
12910;SDS011;6523;49.758;6.120;2022-08-04T17:24:14;3.63;;;2.03;;
12910;SDS011;6523;49.758;6.120;2022-08-04T17:26:39;1.97;;;1.70;;
12910;SDS011;6523;49.758;6.120;2022-08-04T17:29:06;1.97;;;1.87;;
12910;SDS011;6523;49.758;6.120;2022-08-04T17:31:32;6.20;;;1.87;;
12910;SDS011;6523;49.758;6.120;2022-08-04T17:34:01;2.20;;;2.00;;
12910;SDS011;6523;49.758;6.120;2022-08-04T17:36:32;3.43;;;1.93;;
12910;SDS011;6523;49.758;6.120;2022-08-04T17:38:59;2.20;;;1.70;;
12910;SDS011;6523;49.758;6.120;2022-08-04T17:41:27;2.93;;;1.90;;
12910;SDS011;6523;49.758;6.120;2022-08-04T17:43:57;3.33;;;1.90;;
12910;SDS011;6523;49.758;6.120;2022-08-04T17:46:28;2.13;;;1.90;;
12910;SDS011;6523;49.758;6.120;2022-08-04T17:53:59;2.03;;;1.90;;
12910;SDS011;6523;49.758;6.120;2022-08-04T17:56:33;4.25;;;1.83;;
12910;SDS011;6523;49.758;6.120;2022-08-04T18:04:25;2.33;;;2.10;;
12910;SDS011;6523;49.758;6.120;2022-08-04T18:06:53;6.60;;;2.10;;
12910;SDS011;6523;49.758;6.120;2022-08-04T18:09:24;3.90;;;2.15;;
12910;SDS011;6523;49.758;6.120;2022-08-04T18:12:01;1.70;;;1.60;;
12910;SDS011;6523;49.758;6.120;2022-08-04T18:14:41;4.43;;;2.33;;
12910;SDS011;6523;49.758;6.120;2022-08-04T18:17:12;2.60;;;1.85;;
12910;SDS011;6523;49.758;6.120;2022-08-04T18:19:49;3.20;;;1.75;;
12910;SDS011;6523;49.758;6.120;2022-08-04T18:22:16;7.73;;;2.30;;
12910;SDS011;6523;49.758;6.120;2022-08-04T18:24:42;4.67;;;1.70;;
12910;SDS011;6523;49.758;6.120;2022-08-04T18:27:08;2.57;;;1.90;;
12910;SDS011;6523;49.758;6.120;2022-08-04T18:29:34;2.80;;;1.83;;
12910;SDS011;6523;49.758;6.120;2022-08-04T18:31:59;2.10;;;2.00;;
12910;SDS011;6523;49.758;6.120;2022-08-04T18:34:25;2.27;;;2.07;;
12910;SDS011;6523;49.758;6.120;2022-08-04T18:36:51;2.73;;;2.40;;
12910;SDS011;6523;49.758;6.120;2022-08-04T18:39:16;3.07;;;2.03;;
12910;SDS011;6523;49.758;6.120;2022-08-04T18:41:43;3.67;;;2.30;;
12910;SDS011;6523;49.758;6.120;2022-08-04T18:44:09;2.90;;;1.90;;
12910;SDS011;6523;49.758;6.120;2022-08-04T18:46:35;2.70;;;2.20;;
12910;SDS011;6523;49.758;6.120;2022-08-04T18:49:00;4.00;;;1.77;;
12910;SDS011;6523;49.758;6.120;2022-08-04T18:51:26;2.20;;;2.00;;
12910;SDS011;6523;49.758;6.120;2022-08-04T18:53:52;5.37;;;2.10;;
12910;SDS011;6523;49.758;6.120;2022-08-04T18:56:17;3.93;;;2.03;;
12910;SDS011;6523;49.758;6.120;2022-08-04T18:58:43;2.47;;;1.93;;
12910;SDS011;6523;49.758;6.120;2022-08-04T19:01:09;2.17;;;1.80;;
12910;SDS011;6523;49.758;6.120;2022-08-04T19:03:37;3.53;;;2.10;;
12910;SDS011;6523;49.758;6.120;2022-08-04T19:06:03;3.37;;;2.20;;
12910;SDS011;6523;49.758;6.120;2022-08-04T19:08:29;2.93;;;1.80;;
12910;SDS011;6523;49.758;6.120;2022-08-04T19:10:55;2.00;;;1.80;;
12910;SDS011;6523;49.758;6.120;2022-08-04T19:13:21;2.53;;;2.27;;
12910;SDS011;6523;49.758;6.120;2022-08-04T19:15:47;3.90;;;1.80;;
12910;SDS011;6523;49.758;6.120;2022-08-04T19:18:12;2.60;;;1.77;;
12910;SDS011;6523;49.758;6.120;2022-08-04T19:20:38;2.80;;;1.90;;
12910;SDS011;6523;49.758;6.120;2022-08-04T19:23:03;2.10;;;2.00;;
12910;SDS011;6523;49.758;6.120;2022-08-04T19:25:29;3.53;;;2.00;;
12910;SDS011;6523;49.758;6.120;2022-08-04T19:27:55;2.80;;;1.77;;
12910;SDS011;6523;49.758;6.120;2022-08-04T19:30:21;5.93;;;2.30;;
12910;SDS011;6523;49.758;6.120;2022-08-04T19:32:47;3.53;;;2.37;;
12910;SDS011;6523;49.758;6.120;2022-08-04T19:35:12;4.07;;;2.63;;
12910;SDS011;6523;49.758;6.120;2022-08-04T19:37:38;9.63;;;2.63;;
12910;SDS011;6523;49.758;6.120;2022-08-04T19:40:05;8.37;;;2.13;;
12910;SDS011;6523;49.758;6.120;2022-08-04T19:42:32;4.20;;;2.90;;
12910;SDS011;6523;49.758;6.120;2022-08-04T19:44:58;2.80;;;2.43;;
12910;SDS011;6523;49.758;6.120;2022-08-04T19:47:24;3.43;;;2.83;;
12910;SDS011;6523;49.758;6.120;2022-08-04T19:49:51;3.67;;;3.20;;
12910;SDS011;6523;49.758;6.120;2022-08-04T19:52:16;2.40;;;2.23;;
12910;SDS011;6523;49.758;6.120;2022-08-04T19:54:42;4.93;;;2.70;;
12910;SDS011;6523;49.758;6.120;2022-08-04T19:57:08;2.47;;;2.20;;
12910;SDS011;6523;49.758;6.120;2022-08-04T19:59:33;2.00;;;1.90;;
12910;SDS011;6523;49.758;6.120;2022-08-04T20:01:59;3.63;;;2.17;;